createdAt,value
2023-05-09T00:00:30.364Z,21.37
2023-05-09T00:02:58.576Z,20.73
2023-05-09T00:05:26.895Z,20.37
2023-05-09T00:07:55.091Z,21.33
2023-05-09T00:10:24.604Z,21.53
2023-05-09T00:12:53.097Z,20.23
2023-05-09T00:15:21.330Z,20.53
2023-05-09T00:17:50.492Z,20.30
2023-05-09T00:20:18.865Z,19.67
2023-05-09T00:22:47.040Z,18.77
2023-05-09T00:25:15.442Z,19.37
2023-05-09T00:27:45.277Z,18.23
2023-05-09T00:30:13.593Z,17.63
2023-05-09T00:32:41.913Z,18.77
2023-05-09T00:35:10.843Z,17.03
2023-05-09T00:37:38.983Z,17.00
2023-05-09T00:40:09.228Z,16.17
2023-05-09T00:42:37.566Z,17.17
2023-05-09T00:45:07.942Z,16.70
2023-05-09T00:47:36.626Z,17.40
2023-05-09T00:50:05.178Z,16.73
2023-05-09T00:52:34.882Z,16.20
2023-05-09T00:55:04.465Z,16.93
2023-05-09T00:57:33.361Z,15.80
2023-05-09T01:00:01.875Z,16.40
2023-05-09T01:02:32.138Z,16.47
2023-05-09T01:05:00.533Z,17.10
2023-05-09T01:07:32.217Z,17.63
2023-05-09T01:10:04.825Z,16.37
2023-05-09T01:12:36.614Z,17.17
2023-05-09T01:15:07.831Z,17.30
2023-05-09T01:17:40.921Z,16.90
2023-05-09T01:20:14.258Z,16.70
2023-05-09T01:22:46.741Z,16.10
2023-05-09T01:25:38.194Z,16.60
2023-05-09T01:28:11.715Z,16.80
2023-05-09T01:30:41.761Z,15.67
2023-05-09T01:33:10.129Z,15.17
2023-05-09T01:35:40.855Z,14.70
2023-05-09T01:38:12.506Z,14.23
2023-05-09T01:40:41.613Z,12.97
2023-05-09T01:43:10.846Z,12.73
2023-05-09T01:45:39.710Z,13.43
2023-05-09T01:48:09.997Z,12.70
2023-05-09T01:50:39.515Z,12.30
2023-05-09T01:53:08.276Z,11.70
2023-05-09T01:55:37.815Z,11.27
2023-05-09T01:58:07.122Z,11.47
2023-05-09T02:00:35.993Z,11.37
2023-05-09T02:03:05.591Z,12.20
2023-05-09T02:05:35.227Z,11.77
2023-05-09T02:08:03.825Z,11.37
2023-05-09T02:10:32.494Z,12.03
2023-05-09T02:13:00.720Z,12.40
2023-05-09T02:15:29.159Z,12.73
2023-05-09T02:17:57.473Z,12.73
2023-05-09T02:20:25.714Z,11.90
2023-05-09T02:22:55.353Z,12.80
2023-05-09T02:25:23.592Z,12.57
2023-05-09T02:27:53.290Z,11.87
2023-05-09T02:30:25.185Z,13.00
2023-05-09T02:32:55.463Z,12.07
2023-05-09T02:35:24.797Z,13.50
2023-05-09T02:37:53.249Z,13.07
2023-05-09T02:40:23.831Z,13.37
2023-05-09T02:42:52.014Z,12.30
2023-05-09T02:45:20.200Z,13.17
2023-05-09T02:47:48.458Z,13.17
2023-05-09T02:50:16.652Z,13.33
2023-05-09T02:52:44.819Z,12.60
2023-05-09T02:55:13.234Z,13.00
2023-05-09T02:57:42.997Z,13.20
2023-05-09T03:00:12.181Z,12.40
2023-05-09T03:02:40.626Z,13.30
2023-05-09T03:05:09.108Z,12.97
2023-05-09T03:07:37.228Z,12.47
2023-05-09T03:10:06.011Z,12.10
2023-05-09T03:12:34.148Z,12.50
2023-05-09T03:15:03.855Z,12.03
2023-05-09T03:17:32.062Z,12.03
2023-05-09T03:20:02.431Z,13.00
2023-05-09T03:22:32.307Z,13.07
2023-05-09T03:25:00.452Z,13.03
2023-05-09T03:27:28.631Z,12.87
2023-05-09T03:29:56.852Z,12.60
2023-05-09T03:32:26.524Z,12.63
2023-05-09T03:34:55.441Z,12.47
2023-05-09T03:37:26.239Z,12.53
2023-05-09T03:39:55.223Z,13.67
2023-05-09T03:42:23.408Z,13.03
2023-05-09T03:44:51.601Z,13.67
2023-05-09T03:47:19.769Z,12.80
2023-05-09T03:49:49.231Z,13.57
2023-05-09T03:52:17.380Z,13.97
2023-05-09T03:54:45.580Z,13.50
2023-05-09T03:57:13.762Z,13.77
2023-05-09T03:59:41.935Z,13.50
2023-05-09T04:02:10.215Z,13.57
2023-05-09T04:04:38.456Z,13.93
2023-05-09T04:07:08.025Z,14.67
2023-05-09T04:09:36.225Z,13.83
2023-05-09T04:12:04.365Z,14.20
2023-05-09T04:14:32.486Z,14.20
2023-05-09T04:17:00.743Z,14.43
2023-05-09T04:19:28.974Z,14.07
2023-05-09T04:21:57.144Z,14.93
2023-05-09T04:24:26.688Z,15.20
2023-05-09T04:26:54.882Z,14.77
2023-05-09T04:29:23.122Z,15.87
2023-05-09T04:31:51.380Z,16.53
2023-05-09T04:34:19.582Z,15.47
2023-05-09T04:36:47.769Z,18.33
2023-05-09T04:39:15.979Z,18.27
2023-05-09T04:41:47.626Z,19.00
2023-05-09T04:44:15.917Z,20.63
2023-05-09T04:46:44.531Z,22.80
2023-05-09T04:49:12.725Z,25.80
2023-05-09T04:51:40.886Z,25.37
2023-05-09T04:54:09.080Z,25.50
2023-05-09T04:56:37.253Z,25.30
2023-05-09T04:59:07.011Z,26.00
2023-05-09T05:01:35.223Z,24.73
2023-05-09T05:04:03.441Z,26.23
2023-05-09T05:06:31.993Z,28.13
2023-05-09T05:09:00.143Z,27.80
2023-05-09T05:11:28.255Z,27.07
2023-05-09T05:13:56.543Z,27.30
2023-05-09T05:16:26.085Z,30.57
2023-05-09T05:18:54.214Z,32.47
2023-05-09T05:21:22.392Z,26.97
2023-05-09T05:23:50.578Z,27.57
2023-05-09T05:26:18.723Z,30.50
2023-05-09T05:28:46.876Z,34.03
2023-05-09T05:31:15.097Z,35.70
2023-05-09T05:33:44.608Z,33.07
2023-05-09T05:36:12.811Z,34.93
2023-05-09T05:38:40.972Z,29.47
2023-05-09T05:41:11.232Z,34.37
2023-05-09T05:43:39.606Z,33.13
2023-05-09T05:46:07.804Z,36.20
2023-05-09T05:48:36.053Z,41.30
2023-05-09T05:51:05.541Z,31.27
2023-05-09T05:53:33.700Z,31.00
2023-05-09T05:56:01.845Z,33.07
2023-05-09T05:58:30.034Z,32.90
2023-05-09T06:00:58.238Z,35.63
2023-05-09T06:03:26.579Z,35.00
2023-05-09T06:05:55.785Z,29.07
2023-05-09T06:08:25.339Z,32.13
2023-05-09T06:10:53.521Z,29.10
2023-05-09T06:13:21.777Z,39.63
2023-05-09T06:15:50.044Z,31.00
2023-05-09T06:18:18.264Z,32.97
2023-05-09T06:20:46.367Z,29.20
2023-05-09T06:23:14.517Z,26.93
2023-05-09T06:25:44.094Z,32.53
2023-05-09T06:28:12.263Z,33.83
2023-05-09T06:30:40.462Z,34.37
2023-05-09T06:33:08.727Z,36.27
2023-05-09T06:35:36.941Z,29.57
2023-05-09T06:38:05.073Z,33.17
2023-05-09T06:40:33.234Z,21.43
2023-05-09T06:43:02.790Z,24.60
2023-05-09T06:45:31.732Z,25.43
2023-05-09T06:47:59.996Z,22.03
2023-05-09T06:50:28.648Z,26.10
2023-05-09T06:52:57.618Z,21.53
2023-05-09T06:55:25.807Z,15.30
2023-05-09T06:57:53.945Z,15.07
2023-05-09T07:00:24.163Z,22.10
2023-05-09T07:02:52.345Z,22.00
2023-05-09T07:05:20.657Z,23.20
2023-05-09T07:07:48.840Z,15.80
2023-05-09T07:10:17.147Z,15.43
2023-05-09T07:12:45.361Z,15.93
2023-05-09T07:15:14.672Z,16.33
2023-05-09T07:17:47.959Z,15.43
2023-05-09T07:20:16.170Z,14.13
2023-05-09T07:22:44.352Z,17.07
2023-05-09T07:25:12.595Z,19.37
2023-05-09T07:27:40.892Z,21.77
2023-05-09T07:30:10.189Z,17.83
2023-05-09T07:32:38.403Z,19.57
2023-05-09T07:35:08.330Z,24.87
2023-05-09T07:37:36.669Z,25.63
2023-05-09T07:40:06.056Z,27.03
2023-05-09T07:42:34.394Z,31.43
2023-05-09T07:45:04.409Z,29.03
2023-05-09T07:47:32.604Z,31.27
2023-05-09T07:50:00.874Z,46.03
2023-05-09T07:52:30.429Z,50.67
2023-05-09T07:54:58.791Z,41.87
2023-05-09T07:57:26.986Z,73.23
2023-05-09T07:59:55.173Z,57.40
2023-05-09T08:02:23.370Z,58.37
2023-05-09T08:04:51.745Z,62.50
2023-05-09T08:07:19.977Z,79.23
2023-05-09T08:09:49.499Z,88.13
2023-05-09T08:12:17.632Z,65.40
2023-05-09T08:14:45.935Z,60.90
2023-05-09T08:17:14.047Z,54.37
2023-05-09T08:19:42.256Z,60.90
2023-05-09T08:22:10.461Z,85.83
2023-05-09T08:24:38.702Z,89.13
2023-05-09T08:27:08.439Z,98.30
2023-05-09T08:29:36.605Z,94.27
2023-05-09T08:32:04.854Z,72.80
2023-05-09T08:34:34.443Z,65.17
2023-05-09T08:37:02.736Z,80.27
2023-05-09T08:39:31.043Z,74.20
2023-05-09T08:42:00.291Z,99.57
2023-05-09T08:44:31.978Z,84.40
2023-05-09T08:47:01.667Z,80.57
2023-05-09T08:49:30.221Z,81.33
2023-05-09T08:51:58.550Z,91.70
2023-05-09T08:54:26.834Z,82.10
2023-05-09T08:56:55.285Z,106.50
2023-05-09T08:59:23.795Z,95.80
2023-05-09T09:01:55.079Z,77.80
2023-05-09T09:04:24.018Z,89.03
2023-05-09T09:06:53.609Z,103.50
2023-05-09T09:09:22.075Z,89.97
2023-05-09T09:11:50.428Z,98.33
2023-05-09T09:14:21.747Z,101.03
2023-05-09T09:16:50.682Z,94.30
2023-05-09T09:19:20.981Z,98.87
2023-05-09T09:21:51.056Z,106.90
2023-05-09T09:24:22.721Z,108.17
2023-05-09T09:26:51.455Z,95.33
2023-05-09T09:29:20.485Z,129.97
2023-05-09T09:31:49.607Z,120.90
2023-05-09T09:34:22.823Z,110.40
2023-05-09T09:36:51.234Z,108.70
2023-05-09T09:39:19.473Z,109.23
2023-05-09T09:41:47.629Z,107.33
2023-05-09T09:44:16.722Z,115.10
2023-05-09T09:46:46.367Z,119.80
2023-05-09T09:49:15.013Z,138.03
2023-05-09T09:51:44.671Z,132.03
2023-05-09T09:54:13.470Z,140.83
2023-05-09T09:56:45.278Z,159.30
2023-05-09T09:59:13.966Z,134.30
2023-05-09T10:01:58.018Z,125.37
2023-05-09T10:04:26.552Z,116.83
2023-05-09T10:06:56.722Z,120.53
2023-05-09T10:09:24.986Z,126.10
2023-05-09T10:11:54.177Z,124.27
2023-05-09T10:14:23.243Z,130.80
2023-05-09T10:16:52.187Z,140.70
2023-05-09T10:19:21.054Z,137.90
2023-05-09T10:21:51.418Z,136.73
2023-05-09T10:24:24.296Z,144.33
2023-05-09T10:26:54.550Z,127.70
2023-05-09T10:29:25.479Z,149.97
2023-05-09T10:31:56.140Z,167.53
2023-05-09T10:34:25.340Z,169.27
2023-05-09T10:36:53.544Z,174.60
2023-05-09T10:39:24.113Z,160.83
2023-05-09T10:41:53.418Z,153.73
2023-05-09T10:44:22.863Z,125.13
2023-05-09T10:46:51.178Z,135.33
2023-05-09T10:49:19.860Z,140.97
2023-05-09T10:51:48.058Z,150.47
2023-05-09T10:54:17.026Z,141.00
2023-05-09T10:56:46.648Z,154.73
2023-05-09T10:59:29.679Z,125.00
2023-05-09T11:02:00.970Z,107.63
2023-05-09T11:04:29.327Z,106.23
2023-05-09T11:06:57.840Z,112.43
2023-05-09T11:09:28.050Z,115.33
2023-05-09T11:11:58.419Z,103.20
2023-05-09T11:14:33.107Z,144.60
2023-05-09T11:17:01.909Z,180.27
2023-05-09T11:19:39.793Z,170.70
2023-05-09T11:22:14.495Z,159.03
2023-05-09T11:24:46.172Z,166.37
2023-05-09T11:27:20.714Z,143.33
2023-05-09T11:29:52.123Z,141.80
2023-05-09T11:32:20.540Z,172.43
2023-05-09T11:34:48.741Z,145.80
2023-05-09T11:37:19.130Z,157.30
2023-05-09T11:39:58.177Z,174.67
2023-05-09T11:42:29.104Z,186.23
2023-05-09T11:44:58.097Z,213.60
2023-05-09T11:47:28.896Z,208.73
2023-05-09T11:49:57.342Z,216.67
2023-05-09T11:52:25.740Z,212.63
2023-05-09T11:54:53.895Z,171.80
2023-05-09T11:57:22.135Z,161.63
2023-05-09T11:59:51.705Z,122.50
2023-05-09T12:02:20.010Z,154.40
2023-05-09T12:04:48.706Z,168.70
2023-05-09T12:07:18.502Z,166.60
2023-05-09T12:09:46.633Z,193.33
2023-05-09T12:12:17.945Z,156.13
2023-05-09T12:14:46.120Z,188.73
2023-05-09T12:17:15.636Z,180.03
2023-05-09T12:19:43.801Z,188.77
2023-05-09T12:22:12.012Z,194.57
2023-05-09T12:24:40.197Z,197.57
2023-05-09T12:27:08.614Z,180.50
2023-05-09T12:29:36.796Z,208.00
2023-05-09T12:32:04.991Z,197.63
2023-05-09T12:34:34.610Z,225.37
2023-05-09T12:37:03.808Z,213.23
2023-05-09T12:39:32.106Z,198.83
2023-05-09T12:42:01.987Z,192.47
2023-05-09T12:44:30.635Z,220.87
2023-05-09T12:47:00.002Z,157.60
2023-05-09T12:49:28.645Z,148.17
2023-05-09T12:52:00.017Z,174.00
2023-05-09T12:54:29.561Z,182.30
2023-05-09T12:56:59.564Z,195.30
2023-05-09T12:59:28.374Z,191.97
2023-05-09T13:01:58.600Z,182.23
2023-05-09T13:04:27.598Z,178.50
2023-05-09T13:06:59.940Z,182.83
2023-05-09T13:09:28.608Z,195.37
2023-05-09T13:11:56.791Z,164.30
2023-05-09T13:14:25.024Z,154.43
2023-05-09T13:16:53.228Z,181.37
2023-05-09T13:19:21.454Z,175.67
2023-05-09T13:21:49.628Z,143.50
2023-05-09T13:24:19.113Z,178.80
2023-05-09T13:26:47.283Z,172.90
2023-05-09T13:29:15.563Z,168.73
2023-05-09T13:31:43.733Z,173.20
2023-05-09T13:34:11.842Z,193.43
2023-05-09T13:36:40.018Z,225.87
2023-05-09T13:39:08.234Z,225.00
2023-05-09T13:41:38.309Z,208.63
2023-05-09T13:44:06.652Z,201.43
2023-05-09T13:46:34.843Z,197.10
2023-05-09T13:49:02.975Z,182.70
2023-05-09T13:51:31.166Z,138.20
2023-05-09T13:53:59.378Z,140.07
2023-05-09T13:56:27.534Z,150.97
2023-05-09T13:58:57.105Z,175.60
2023-05-09T14:01:25.294Z,169.50
2023-05-09T14:03:54.094Z,166.53
2023-05-09T14:06:22.354Z,134.20
2023-05-09T14:08:50.521Z,132.73
2023-05-09T14:11:18.726Z,130.87
2023-05-09T14:13:47.198Z,150.53
2023-05-09T14:16:16.779Z,160.43
2023-05-09T14:18:45.009Z,190.87
2023-05-09T14:21:13.246Z,162.80
2023-05-09T14:23:41.476Z,159.47
2023-05-09T14:26:09.640Z,160.00
2023-05-09T14:28:38.199Z,138.73
2023-05-09T14:31:06.844Z,134.17
2023-05-09T14:33:36.677Z,144.07
2023-05-09T14:36:05.986Z,119.10
2023-05-09T14:38:34.340Z,114.30
2023-05-09T14:41:03.457Z,128.27
2023-05-09T14:43:31.710Z,123.57
2023-05-09T14:45:59.972Z,148.27
2023-05-09T14:48:28.127Z,154.30
2023-05-09T14:50:57.673Z,164.83
2023-05-09T14:53:25.838Z,162.23
2023-05-09T14:55:54.000Z,173.60
2023-05-09T14:58:22.735Z,139.60
2023-05-09T15:00:52.839Z,167.27
2023-05-09T15:03:21.182Z,121.87
2023-05-09T15:05:50.433Z,105.83
2023-05-09T15:08:19.990Z,99.27
2023-05-09T15:10:50.698Z,123.20
2023-05-09T15:13:18.942Z,92.93
2023-05-09T15:15:47.193Z,102.87
2023-05-09T15:18:16.814Z,129.07
2023-05-09T15:20:45.003Z,105.10
2023-05-09T15:23:13.917Z,98.47
2023-05-09T15:25:44.456Z,94.23
2023-05-09T15:28:12.643Z,83.87
2023-05-09T15:30:41.544Z,97.00
2023-05-09T15:33:10.269Z,61.90
2023-05-09T15:35:38.592Z,64.63
2023-05-09T15:38:07.783Z,59.33
2023-05-09T15:40:35.946Z,52.67
2023-05-09T15:43:08.109Z,60.53
2023-05-09T15:45:37.796Z,49.53
2023-05-09T15:48:06.306Z,61.80
2023-05-09T15:50:34.692Z,48.87
2023-05-09T15:53:03.118Z,50.10
2023-05-09T15:55:33.123Z,54.60
2023-05-09T15:58:01.532Z,58.63
2023-05-09T16:00:31.386Z,63.20
2023-05-09T16:02:59.877Z,54.93
2023-05-09T16:05:28.123Z,33.37
2023-05-09T16:07:56.382Z,35.67
2023-05-09T16:10:24.632Z,52.63
2023-05-09T16:12:52.813Z,58.17
2023-05-09T16:15:21.068Z,42.80
2023-05-09T16:17:50.583Z,31.10
2023-05-09T16:20:18.894Z,50.07
2023-05-09T16:22:47.446Z,54.87
2023-05-09T16:25:15.713Z,43.00
2023-05-09T16:27:43.861Z,49.07
2023-05-09T16:30:12.504Z,69.90
2023-05-09T16:32:40.774Z,76.57
2023-05-09T16:35:10.761Z,71.40
2023-05-09T16:37:39.009Z,84.30
2023-05-09T16:40:07.776Z,50.63
2023-05-09T16:42:36.048Z,52.47
2023-05-09T16:45:04.396Z,33.57
2023-05-09T16:47:32.557Z,54.80
2023-05-09T16:50:00.900Z,62.50
2023-05-09T16:52:30.631Z,51.97
2023-05-09T16:54:59.297Z,33.87
2023-05-09T16:57:27.625Z,38.30
2023-05-09T16:59:55.793Z,29.00
2023-05-09T17:02:24.033Z,24.90
2023-05-09T17:04:52.613Z,33.57
2023-05-09T17:07:20.829Z,31.17
2023-05-09T17:09:50.379Z,43.77
2023-05-09T17:12:18.606Z,48.23
2023-05-09T17:14:47.019Z,47.23
2023-05-09T17:17:17.593Z,35.07
2023-05-09T17:19:45.790Z,46.93
2023-05-09T17:22:13.903Z,29.33
2023-05-09T17:24:42.097Z,34.30
2023-05-09T17:27:11.749Z,40.13
2023-05-09T17:29:39.979Z,38.33
2023-05-09T17:32:08.558Z,26.83
2023-05-09T17:34:37.918Z,39.87
2023-05-09T17:37:07.295Z,42.30
2023-05-09T17:39:35.961Z,40.70
2023-05-09T17:42:04.117Z,41.00
2023-05-09T17:44:33.592Z,37.50
2023-05-09T17:47:02.092Z,57.80
2023-05-09T17:49:30.273Z,68.03
2023-05-09T17:51:59.709Z,76.13
2023-05-09T17:54:27.952Z,48.50
2023-05-09T17:56:59.183Z,67.67
2023-05-09T17:59:27.867Z,65.93
2023-05-09T18:01:57.478Z,78.93
2023-05-09T18:04:26.932Z,75.20
2023-05-09T18:06:55.163Z,82.27
2023-05-09T18:09:23.697Z,57.40
2023-05-09T18:11:51.888Z,79.63
2023-05-09T18:14:20.044Z,72.13
2023-05-09T18:16:48.158Z,69.50
2023-05-09T18:19:17.700Z,59.03
2023-05-09T18:21:46.303Z,58.77
2023-05-09T18:24:16.311Z,65.00
2023-05-09T18:26:45.242Z,76.47
2023-05-09T18:29:13.429Z,82.20
2023-05-09T18:31:41.800Z,101.63
2023-05-09T18:34:10.238Z,113.83
2023-05-09T18:36:39.750Z,110.23
2023-05-09T18:39:08.778Z,111.87
2023-05-09T18:41:36.928Z,97.73
2023-05-09T18:44:05.040Z,103.33
2023-05-09T18:46:33.739Z,108.93
2023-05-09T18:49:03.351Z,99.93
2023-05-09T18:51:32.121Z,97.50
2023-05-09T18:54:01.646Z,83.80
2023-05-09T18:56:30.074Z,83.30
2023-05-09T18:58:58.289Z,71.57
2023-05-09T19:01:26.484Z,83.57
2023-05-09T19:03:55.264Z,73.43
2023-05-09T19:06:24.052Z,69.50
2023-05-09T19:08:53.765Z,71.53
2023-05-09T19:11:23.392Z,68.47
2023-05-09T19:13:53.043Z,70.93
2023-05-09T19:16:22.444Z,65.03
2023-05-09T19:18:50.706Z,67.83
2023-05-09T19:21:18.936Z,51.20
2023-05-09T19:23:49.071Z,60.33
2023-05-09T19:26:17.376Z,54.63
2023-05-09T19:28:47.813Z,55.93
2023-05-09T19:31:16.252Z,54.97
2023-05-09T19:33:45.755Z,54.17
2023-05-09T19:36:14.046Z,50.33
2023-05-09T19:38:42.254Z,57.10
2023-05-09T19:41:10.702Z,56.73
2023-05-09T19:43:38.876Z,54.97
2023-05-09T19:46:08.476Z,61.23
2023-05-09T19:48:36.681Z,64.97
2023-05-09T19:51:05.585Z,72.53
2023-05-09T19:53:33.784Z,61.77
2023-05-09T19:56:02.462Z,60.57
2023-05-09T19:58:30.655Z,54.43
2023-05-09T20:00:58.801Z,62.83
2023-05-09T20:03:29.027Z,68.37
2023-05-09T20:05:57.290Z,64.47
2023-05-09T20:08:25.892Z,63.70
2023-05-09T20:10:54.015Z,59.00
2023-05-09T20:13:22.312Z,56.73
2023-05-09T20:15:50.606Z,58.47
2023-05-09T20:18:18.847Z,51.87
2023-05-09T20:20:48.445Z,54.63
2023-05-09T20:23:16.665Z,52.43
2023-05-09T20:25:44.873Z,54.17
2023-05-09T20:28:16.201Z,50.60
2023-05-09T20:30:44.393Z,51.37
2023-05-09T20:33:12.506Z,52.30
2023-05-09T20:35:43.031Z,59.80
2023-05-09T20:38:12.660Z,58.13
2023-05-09T20:40:41.380Z,61.00
2023-05-09T20:43:09.593Z,54.17
2023-05-09T20:45:38.179Z,49.50
2023-05-09T20:48:06.824Z,49.87
2023-05-09T20:50:35.007Z,52.80
2023-05-09T20:53:03.165Z,49.80
2023-05-09T20:55:32.747Z,46.20
2023-05-09T20:58:00.932Z,42.47
2023-05-09T21:00:29.144Z,37.73
2023-05-09T21:02:58.711Z,39.50
2023-05-09T21:05:27.096Z,36.63
2023-05-09T21:07:55.252Z,34.83
2023-05-09T21:10:23.859Z,35.07
2023-05-09T21:12:53.369Z,36.20
2023-05-09T21:15:21.532Z,33.67
2023-05-09T21:17:49.810Z,32.20
2023-05-09T21:20:18.226Z,30.43
2023-05-09T21:22:46.562Z,28.93
2023-05-09T21:25:15.544Z,28.83
2023-05-09T21:27:43.701Z,28.27
2023-05-09T21:30:13.799Z,29.30
2023-05-09T21:32:42.313Z,29.13
2023-05-09T21:35:12.838Z,27.83
2023-05-09T21:37:41.061Z,28.80
2023-05-09T21:40:10.026Z,31.57
2023-05-09T21:42:40.131Z,29.43
2023-05-09T21:45:08.900Z,29.47
2023-05-09T21:47:39.619Z,27.57
2023-05-09T21:50:08.301Z,25.67
2023-05-09T21:52:36.505Z,23.63
2023-05-09T21:55:04.779Z,24.70
2023-05-09T21:57:32.894Z,25.37
2023-05-09T22:00:01.934Z,26.33
2023-05-09T22:02:30.261Z,26.50
2023-05-09T22:04:59.794Z,26.57
2023-05-09T22:07:27.912Z,23.43
2023-05-09T22:09:56.009Z,23.73
2023-05-09T22:12:24.162Z,23.10
2023-05-09T22:14:56.374Z,23.50
2023-05-09T22:17:25.361Z,23.87
2023-05-09T22:19:53.507Z,24.67
2023-05-09T22:22:23.064Z,24.80
2023-05-09T22:24:51.228Z,23.83
2023-05-09T22:27:19.395Z,23.70
2023-05-09T22:29:47.619Z,23.67
2023-05-09T22:32:15.788Z,22.13
2023-05-09T22:34:43.961Z,23.00
2023-05-09T22:37:12.290Z,23.23
2023-05-09T22:39:41.794Z,23.37
2023-05-09T22:42:11.273Z,24.13
2023-05-09T22:44:39.475Z,27.40
2023-05-09T22:47:08.624Z,22.33
2023-05-09T22:49:37.413Z,22.63
2023-05-09T22:52:05.818Z,23.47
2023-05-09T22:54:34.028Z,22.50
2023-05-09T22:57:03.629Z,25.10
2023-05-09T22:59:31.991Z,25.00
2023-05-09T23:02:00.236Z,23.60
2023-05-09T23:04:28.562Z,25.00
2023-05-09T23:06:56.728Z,26.93
2023-05-09T23:09:24.888Z,27.93
2023-05-09T23:11:53.094Z,27.37
2023-05-09T23:14:22.612Z,26.47
2023-05-09T23:16:50.820Z,21.67
2023-05-09T23:19:19.619Z,21.77
2023-05-09T23:21:47.799Z,22.37
2023-05-09T23:24:16.034Z,23.23
2023-05-09T23:26:44.224Z,24.37
2023-05-09T23:29:12.363Z,21.17
2023-05-09T23:31:42.115Z,16.83
2023-05-09T23:34:10.358Z,16.63
2023-05-09T23:36:38.687Z,16.60
2023-05-09T23:39:07.040Z,16.13
2023-05-09T23:41:35.192Z,14.87
2023-05-09T23:44:03.992Z,14.97
2023-05-09T23:46:32.309Z,17.77
2023-05-09T23:49:01.842Z,19.10
2023-05-09T23:51:29.981Z,17.80
2023-05-09T23:53:58.189Z,17.20
2023-05-09T23:56:26.365Z,19.93
2023-05-09T23:58:54.560Z,21.70
